SCAT

Details ICAO SCAT
Name DESIERTO DE ATACAMA
Region Chile
Timezone America/Santiago (UTC-4.0)
Plans Departing 24
Arriving 23
Stats Elevation 670 ft / 204 m (AMSL)
Location -27.261246° -70.779220°
Runways 1
Magnetic Variation 1.514° W
Sunrise 2018-05-25 11:22:59 UTC / 2018-05-25 07:22:59 Local
Sunset 2018-05-25 22:00:02 UTC / 2018-05-25 18:00:02 Local
Advertisement - Login to hide

Runways

ID Width Length Bearing (true) Bearing (mag) Surface Threshold Offset Overrun Length
17 148 ft / 45 m 7,214 ft / 2,199 m 175.35° 176.86° Asphalt 0 ft / 0 m 195 ft / 59 m
35 148 ft / 45 m 7,214 ft / 2,199 m 355.35° 356.86° Asphalt 0 ft / 0 m 195 ft / 59 m

Approach Navaids

Runway Type Ident Frequency Range Bearing (true) Bearing (mag) Slope Elevation
17 Localiser IDAT 110.10 MHz 18 nm / 33 km 175.50° 177.01° - 670 ft / 204 m (AMSL)
17 Glidescope IDAT 110.10 MHz 10 nm / 19 km 175.35° 176.86° 3.00° 628 ft / 191 m (AMSL)

Map

Weather


0- 5 10 15 20 25 30 35+ Temperature / ° C

Clouds and Precipitation
Forecast for 2018-05-25 18:00 UTC. Updated a minute ago

Ground ~20,000 ft ~40,000 ft Winds

METAR

SCAT 251700Z VRB02KT CAVOK 16/08 Q1016

TAF

TAF SCAT 251030Z 2512/2612 07004KT 7000 OVC006 TX17/2518Z TN11/2606Z BECMG 2514/2516 27009KT 9999 BKN012 BECMG 2517/2519 FEW015 BECMG 2522/2600 23004KT OVC015 BECMG 2604/2606 14004KT OVC006
Warning: Do not use this data for real-world aviation or navigation. No guarantee of current accuracy is given.